createdAt,value
2022-10-29T00:01:33.009Z,9.17
2022-10-29T00:04:02.101Z,9.00
2022-10-29T00:06:31.165Z,9.10
2022-10-29T00:09:00.287Z,9.27
2022-10-29T00:11:30.753Z,9.23
2022-10-29T00:14:02.105Z,10.27
2022-10-29T00:16:38.207Z,10.10
2022-10-29T00:19:09.355Z,9.60
2022-10-29T00:21:40.453Z,9.70
2022-10-29T00:24:11.084Z,9.37
2022-10-29T00:26:41.476Z,9.30
2022-10-29T00:29:10.749Z,9.20
2022-10-29T00:31:39.800Z,9.33
2022-10-29T00:34:09.178Z,9.43
2022-10-29T00:36:38.243Z,9.60
2022-10-29T00:39:07.461Z,9.20
2022-10-29T00:41:36.520Z,9.17
2022-10-29T00:44:33.687Z,9.07
2022-10-29T00:47:19.446Z,8.80
2022-10-29T00:49:51.776Z,9.07
2022-10-29T00:52:22.908Z,9.40
2022-10-29T00:54:55.020Z,9.37
2022-10-29T00:57:29.441Z,9.20
2022-10-29T01:00:00.116Z,9.37
2022-10-29T01:02:30.841Z,9.47
2022-10-29T01:05:01.914Z,9.20
2022-10-29T01:07:31.120Z,8.90
2022-10-29T01:10:00.634Z,9.17
2022-10-29T01:12:45.308Z,9.13
2022-10-29T01:15:24.588Z,10.10
2022-10-29T01:18:10.596Z,9.10
2022-10-29T01:21:15.542Z,9.20
2022-10-29T01:24:22.668Z,9.47
2022-10-29T01:27:41.731Z,9.27
2022-10-29T01:30:20.623Z,9.13
2022-10-29T01:33:10.937Z,9.33
2022-10-29T01:35:50.241Z,9.30
2022-10-29T01:38:34.846Z,9.53
2022-10-29T01:41:13.337Z,9.00
2022-10-29T01:43:50.411Z,9.20
2022-10-29T01:46:24.253Z,9.40
2022-10-29T01:48:59.504Z,9.17
2022-10-29T01:51:32.836Z,9.40
2022-10-29T01:54:08.717Z,9.20
2022-10-29T01:56:37.921Z,9.40
2022-10-29T01:59:18.285Z,9.57
2022-10-29T02:02:09.418Z,9.10
2022-10-29T02:04:57.821Z,9.40
2022-10-29T02:07:42.780Z,9.23
2022-10-29T02:10:22.365Z,9.10
2022-10-29T02:12:54.704Z,9.37
2022-10-29T02:15:30.446Z,8.90
2022-10-29T02:18:01.513Z,9.87
2022-10-29T02:20:32.450Z,9.80
2022-10-29T02:23:02.045Z,9.17
2022-10-29T02:25:31.652Z,9.27
2022-10-29T02:28:01.376Z,9.87
2022-10-29T02:30:30.460Z,9.20
2022-10-29T02:32:59.773Z,9.27
2022-10-29T02:35:29.022Z,9.13
2022-10-29T02:37:59.458Z,9.10
2022-10-29T02:40:28.470Z,9.60
2022-10-29T02:42:57.675Z,10.63
2022-10-29T02:45:26.957Z,10.40
2022-10-29T02:47:56.189Z,10.00
2022-10-29T02:50:25.616Z,9.60
2022-10-29T02:52:54.714Z,9.70
2022-10-29T02:55:25.155Z,9.13
2022-10-29T02:57:54.509Z,9.40
2022-10-29T03:00:23.750Z,9.40
2022-10-29T03:02:53.744Z,9.10
2022-10-29T03:05:23.048Z,9.47
2022-10-29T03:07:52.114Z,9.17
2022-10-29T03:10:21.256Z,9.20
2022-10-29T03:12:51.699Z,9.40
2022-10-29T03:15:20.736Z,9.23
2022-10-29T03:17:49.780Z,9.27
2022-10-29T03:20:18.906Z,8.97
2022-10-29T03:22:48.016Z,9.40
2022-10-29T03:25:17.568Z,9.20
2022-10-29T03:27:48.290Z,9.53
2022-10-29T03:30:19.254Z,9.90
2022-10-29T03:32:49.630Z,9.50
2022-10-29T03:35:18.929Z,9.90
2022-10-29T03:37:51.620Z,9.73
2022-10-29T03:40:21.583Z,9.70
2022-10-29T03:42:50.591Z,9.50
2022-10-29T03:45:21.079Z,9.67
2022-10-29T03:47:50.283Z,8.93
2022-10-29T03:50:19.516Z,9.50
2022-10-29T03:52:48.547Z,9.10
2022-10-29T03:55:17.766Z,9.50
2022-10-29T03:57:46.842Z,9.43
2022-10-29T04:00:17.358Z,9.50
2022-10-29T04:02:47.823Z,9.30
2022-10-29T04:05:17.312Z,9.50
2022-10-29T04:07:46.338Z,9.70
2022-10-29T04:10:15.529Z,9.27
2022-10-29T04:12:47.369Z,9.03
2022-10-29T04:15:16.894Z,9.20
2022-10-29T04:17:47.483Z,9.00
2022-10-29T04:20:40.606Z,9.40
2022-10-29T04:28:50.547Z,9.30
2022-10-29T04:31:20.487Z,9.50
2022-10-29T04:33:50.973Z,10.10
2022-10-29T04:36:20.101Z,9.40
2022-10-29T04:38:49.195Z,9.30
2022-10-29T04:41:18.281Z,9.20
2022-10-29T04:43:47.506Z,9.27
2022-10-29T04:46:16.601Z,9.60
2022-10-29T04:48:45.774Z,9.50
2022-10-29T04:51:22.278Z,9.70
2022-10-29T04:53:51.796Z,9.50
2022-10-29T04:56:21.047Z,9.50
2022-10-29T04:58:53.510Z,10.00
2022-10-29T05:01:22.940Z,9.60
2022-10-29T05:03:55.579Z,9.63
2022-10-29T05:06:29.582Z,9.50
2022-10-29T05:08:58.613Z,9.60
2022-10-29T05:11:27.697Z,9.83
2022-10-29T05:13:56.805Z,9.40
2022-10-29T05:16:25.921Z,10.23
2022-10-29T05:18:55.012Z,9.80
2022-10-29T05:21:24.073Z,10.00
2022-10-29T05:23:54.532Z,10.10
2022-10-29T05:26:23.640Z,9.63
2022-10-29T05:28:53.067Z,10.60
2022-10-29T05:31:22.160Z,10.20
2022-10-29T05:33:53.947Z,10.53
2022-10-29T05:36:25.261Z,10.83
2022-10-29T05:38:55.797Z,11.40
2022-10-29T05:41:24.944Z,11.00
2022-10-29T05:43:54.100Z,10.57
2022-10-29T05:46:23.193Z,11.37
2022-10-29T05:48:52.288Z,11.20
2022-10-29T05:51:21.385Z,11.20
2022-10-29T05:53:50.741Z,10.90
2022-10-29T05:56:21.150Z,10.93
2022-10-29T05:58:51.324Z,10.97
2022-10-29T06:01:20.718Z,11.23
2022-10-29T06:03:49.988Z,10.87
2022-10-29T06:06:19.170Z,11.07
2022-10-29T06:08:48.247Z,10.73
2022-10-29T06:11:17.285Z,11.50
2022-10-29T06:13:47.699Z,12.20
2022-10-29T06:16:16.739Z,12.40
2022-10-29T06:18:45.847Z,11.70
2022-10-29T06:21:14.920Z,12.20
2022-10-29T06:23:44.021Z,12.43
2022-10-29T06:26:13.093Z,11.67
2022-10-29T06:28:42.132Z,11.63
2022-10-29T06:31:12.651Z,12.15
2022-10-29T06:33:41.767Z,11.50
2022-10-29T06:36:10.989Z,10.77
2022-10-29T06:38:40.064Z,11.90
2022-10-29T06:41:09.644Z,10.83
2022-10-29T06:43:38.740Z,11.07
2022-10-29T06:46:08.046Z,10.63
2022-10-29T06:48:38.619Z,10.20
2022-10-29T06:51:08.038Z,10.37
2022-10-29T06:53:37.156Z,10.60
2022-10-29T06:56:06.553Z,10.83
2022-10-29T06:58:35.598Z,11.10
2022-10-29T07:01:04.741Z,10.90
2022-10-29T07:03:33.809Z,11.57
2022-10-29T07:06:04.427Z,11.00
2022-10-29T07:08:33.485Z,10.60
2022-10-29T07:11:03.021Z,10.57
2022-10-29T07:13:32.132Z,10.40
2022-10-29T07:16:01.206Z,10.90
2022-10-29T07:18:32.579Z,10.83
2022-10-29T07:21:05.705Z,10.40
2022-10-29T07:23:34.770Z,10.70
2022-10-29T07:26:04.001Z,10.60
2022-10-29T07:28:33.117Z,10.20
2022-10-29T07:31:02.967Z,10.57
2022-10-29T07:33:32.308Z,10.50
2022-10-29T07:36:01.762Z,33.87
2022-10-29T07:38:32.232Z,30.13
2022-10-29T07:41:01.248Z,21.60
2022-10-29T07:43:30.303Z,17.10
2022-10-29T07:45:59.785Z,14.67
2022-10-29T07:48:28.868Z,13.07
2022-10-29T07:51:00.430Z,11.70
2022-10-29T07:53:32.745Z,10.60
2022-10-29T07:56:02.040Z,9.97
2022-10-29T07:58:31.079Z,9.13
2022-10-29T08:01:01.727Z,11.97
2022-10-29T08:03:30.877Z,10.57
2022-10-29T08:06:00.456Z,10.17
2022-10-29T08:08:31.172Z,9.80
2022-10-29T08:11:02.279Z,9.73
2022-10-29T08:13:31.769Z,9.27
2022-10-29T08:16:01.081Z,9.40
2022-10-29T08:18:30.220Z,9.30
2022-10-29T08:20:59.326Z,9.40
2022-10-29T08:23:28.378Z,9.27
2022-10-29T08:26:00.610Z,11.07
2022-10-29T08:28:33.157Z,9.63
2022-10-29T08:31:04.879Z,9.77
2022-10-29T08:33:33.865Z,9.60
2022-10-29T08:36:02.908Z,9.40
2022-10-29T08:38:31.952Z,9.20
2022-10-29T08:41:28.048Z,9.10
2022-10-29T08:44:38.612Z,8.90
2022-10-29T08:47:16.860Z,9.23
2022-10-29T08:49:52.664Z,9.47
2022-10-29T08:52:28.039Z,9.10
2022-10-29T08:55:07.537Z,9.43
2022-10-29T08:57:44.124Z,9.20
2022-10-29T09:00:17.974Z,9.27
2022-10-29T09:02:47.645Z,9.00
2022-10-29T09:05:18.760Z,9.60
2022-10-29T09:08:08.619Z,9.50
2022-10-29T09:10:45.508Z,9.33
2022-10-29T09:13:53.974Z,9.77
2022-10-29T09:16:43.365Z,9.57
2022-10-29T09:19:39.573Z,9.60
2022-10-29T09:22:19.025Z,9.43
2022-10-29T09:25:12.815Z,9.40
2022-10-29T09:27:58.698Z,9.43
2022-10-29T09:30:32.256Z,9.70
2022-10-29T09:33:07.457Z,10.07
2022-10-29T09:35:41.227Z,10.50
2022-10-29T09:38:17.733Z,10.30
2022-10-29T09:40:47.505Z,9.30
2022-10-29T09:43:38.592Z,9.80
2022-10-29T09:46:20.346Z,9.77
2022-10-29T09:48:58.854Z,9.40
2022-10-29T09:51:44.366Z,9.00
2022-10-29T09:54:13.784Z,9.80
2022-10-29T09:56:45.071Z,9.27
2022-10-29T09:59:31.013Z,9.30
2022-10-29T10:02:01.927Z,9.17
2022-10-29T10:04:38.760Z,9.53
2022-10-29T10:07:10.596Z,9.50
2022-10-29T10:10:01.426Z,9.40
2022-10-29T10:12:46.806Z,9.17
2022-10-29T10:15:28.521Z,9.67
2022-10-29T10:18:02.547Z,10.40
2022-10-29T10:20:36.591Z,9.73
2022-10-29T10:23:24.161Z,9.57
2022-10-29T10:25:58.760Z,9.37
2022-10-29T10:28:34.538Z,9.37
2022-10-29T10:31:14.937Z,9.47
2022-10-29T10:33:54.434Z,9.20
2022-10-29T10:36:26.135Z,8.93
2022-10-29T10:38:58.288Z,9.20
2022-10-29T10:41:35.673Z,9.00
2022-10-29T10:44:07.505Z,13.33
2022-10-29T10:46:40.816Z,15.73
2022-10-29T10:49:18.491Z,11.60
2022-10-29T10:51:51.797Z,11.10
2022-10-29T10:54:33.405Z,10.17
2022-10-29T10:57:05.536Z,9.50
2022-10-29T10:59:50.818Z,9.13
2022-10-29T11:02:29.678Z,8.80
2022-10-29T11:05:16.327Z,9.60
2022-10-29T11:07:55.691Z,8.80
2022-10-29T11:10:33.137Z,8.93
2022-10-29T11:13:07.273Z,9.10
2022-10-29T11:15:43.576Z,9.17
2022-10-29T11:18:21.166Z,9.00
2022-10-29T11:21:06.181Z,8.97
2022-10-29T11:23:51.356Z,9.40
2022-10-29T11:26:28.827Z,9.30
2022-10-29T11:29:07.209Z,10.20
2022-10-29T11:31:45.490Z,9.93
2022-10-29T11:34:23.615Z,9.80
2022-10-29T11:37:02.842Z,10.27
2022-10-29T11:39:38.293Z,9.60
2022-10-29T11:42:10.151Z,9.43
2022-10-29T11:44:41.026Z,9.43
2022-10-29T11:47:32.492Z,9.57
2022-10-29T11:50:16.219Z,9.47
2022-10-29T11:52:54.082Z,9.73
2022-10-29T11:55:36.775Z,9.50
2022-10-29T11:58:18.316Z,9.27
2022-10-29T12:01:00.172Z,9.50
2022-10-29T12:03:47.153Z,9.67
2022-10-29T12:06:24.400Z,9.70
2022-10-29T12:09:16.504Z,9.40
2022-10-29T12:11:53.727Z,9.70
2022-10-29T12:14:34.155Z,20.97
2022-10-29T12:17:12.252Z,25.23
2022-10-29T12:19:52.973Z,18.13
2022-10-29T12:22:36.077Z,14.40
2022-10-29T12:25:28.400Z,12.60
2022-10-29T12:28:19.117Z,11.77
2022-10-29T12:31:07.764Z,10.73
2022-10-29T12:33:45.929Z,10.10
2022-10-29T12:36:26.146Z,10.37
2022-10-29T12:38:57.792Z,9.90
2022-10-29T12:41:35.858Z,10.00
2022-10-29T12:44:15.368Z,9.87
2022-10-29T12:46:53.563Z,9.80
2022-10-29T12:49:32.680Z,9.57
2022-10-29T12:52:12.551Z,9.73
2022-10-29T12:54:44.729Z,9.53
2022-10-29T12:57:39.495Z,9.73
2022-10-29T13:00:48.727Z,9.50
2022-10-29T13:04:00.019Z,9.43
2022-10-29T13:06:52.525Z,9.37
2022-10-29T13:09:24.254Z,9.30
2022-10-29T13:11:55.438Z,10.73
2022-10-29T13:14:35.419Z,9.77
2022-10-29T13:17:08.481Z,9.50
2022-10-29T13:19:46.275Z,10.23
2022-10-29T13:22:56.708Z,9.80
2022-10-29T13:25:52.098Z,10.20
2022-10-29T13:28:51.442Z,9.50
2022-10-29T13:32:02.166Z,9.90
2022-10-29T13:34:57.119Z,9.30
2022-10-29T13:38:13.378Z,9.30
2022-10-29T13:41:13.179Z,9.47
2022-10-29T13:43:45.464Z,9.40
2022-10-29T13:46:45.616Z,9.80
2022-10-29T13:49:21.709Z,9.80
2022-10-29T13:52:01.005Z,9.70
2022-10-29T13:54:40.444Z,10.27
2022-10-29T13:57:20.045Z,10.30
2022-10-29T13:59:56.871Z,9.80
2022-10-29T14:02:36.830Z,9.97
2022-10-29T14:05:18.652Z,9.97
2022-10-29T14:07:56.065Z,12.50
2022-10-29T14:13:13.020Z,10.80
2022-10-29T14:16:02.658Z,10.10
2022-10-29T14:18:33.992Z,9.80
2022-10-29T14:21:07.702Z,9.67
2022-10-29T14:23:40.913Z,10.00
2022-10-29T14:26:17.556Z,9.97
2022-10-29T14:28:46.641Z,9.90
2022-10-29T14:31:19.394Z,10.00
2022-10-29T14:33:56.293Z,9.90
2022-10-29T14:36:35.133Z,9.40
2022-10-29T14:39:08.913Z,9.70
2022-10-29T14:41:40.341Z,9.40
2022-10-29T14:44:17.069Z,9.70
2022-10-29T14:47:04.563Z,9.70
2022-10-29T14:49:38.995Z,9.50
2022-10-29T14:52:27.472Z,9.90
2022-10-29T14:54:59.113Z,9.87
2022-10-29T14:57:33.495Z,9.90
2022-10-29T15:00:07.040Z,9.90
2022-10-29T15:02:41.248Z,10.17
2022-10-29T15:05:26.473Z,9.87
2022-10-29T15:08:14.120Z,9.23
2022-10-29T15:10:51.504Z,10.13
2022-10-29T15:13:31.829Z,9.70
2022-10-29T15:16:03.641Z,10.07
2022-10-29T15:18:35.122Z,10.20
2022-10-29T15:21:05.659Z,10.20
2022-10-29T15:23:43.679Z,10.33
2022-10-29T15:26:20.588Z,9.97
2022-10-29T15:28:53.169Z,10.30
2022-10-29T15:31:27.687Z,10.17
2022-10-29T15:34:01.872Z,10.10
2022-10-29T15:36:47.401Z,10.10
2022-10-29T15:39:29.442Z,10.03
2022-10-29T15:42:00.917Z,10.57
2022-10-29T15:44:39.517Z,11.10
2022-10-29T15:47:23.290Z,11.03
2022-10-29T15:49:52.601Z,10.10
2022-10-29T15:52:32.069Z,10.40
2022-10-29T15:55:04.212Z,10.30
2022-10-29T15:57:35.100Z,10.07
2022-10-29T16:00:07.342Z,10.07
2022-10-29T16:02:37.886Z,10.10
2022-10-29T16:05:08.114Z,10.40
2022-10-29T16:07:37.259Z,11.67
2022-10-29T16:10:08.952Z,11.07
2022-10-29T16:12:38.409Z,12.17
2022-10-29T16:15:14.235Z,11.20
2022-10-29T16:17:43.589Z,10.93
2022-10-29T16:20:18.330Z,10.60
2022-10-29T16:22:48.939Z,10.37
2022-10-29T16:25:24.462Z,10.57
2022-10-29T16:27:54.236Z,10.70
2022-10-29T16:30:25.139Z,10.57
2022-10-29T16:32:55.164Z,10.83
2022-10-29T16:35:26.601Z,11.10
2022-10-29T16:37:57.368Z,10.77
2022-10-29T16:40:29.946Z,11.00
2022-10-29T16:42:59.470Z,11.03
2022-10-29T16:45:30.972Z,10.63
2022-10-29T16:48:00.783Z,10.60
2022-10-29T16:50:33.476Z,10.83
2022-10-29T16:53:06.209Z,10.87
2022-10-29T16:55:39.521Z,11.03
2022-10-29T16:58:10.472Z,10.73
2022-10-29T17:00:40.256Z,10.90
2022-10-29T17:03:12.233Z,10.80
2022-10-29T17:05:43.938Z,11.00
2022-10-29T17:08:13.952Z,31.03
2022-10-29T17:10:44.616Z,23.93
2022-10-29T17:13:14.470Z,19.77
2022-10-29T17:15:43.818Z,16.20
2022-10-29T17:18:12.942Z,14.13
2022-10-29T17:20:41.947Z,13.30
2022-10-29T17:23:11.015Z,11.90
2022-10-29T17:25:41.759Z,11.70
2022-10-29T17:28:12.203Z,11.37
2022-10-29T17:30:41.518Z,10.73
2022-10-29T17:33:12.925Z,10.20
2022-10-29T17:35:42.424Z,10.50
2022-10-29T17:38:12.008Z,10.43
2022-10-29T17:40:41.334Z,10.60
2022-10-29T17:43:11.903Z,10.50
2022-10-29T17:45:43.715Z,12.37
2022-10-29T17:48:12.854Z,17.50
2022-10-29T17:50:42.078Z,15.30
2022-10-29T17:53:11.240Z,13.60
2022-10-29T17:55:40.278Z,12.50
2022-10-29T17:58:11.924Z,11.57
2022-10-29T18:00:45.218Z,11.43
2022-10-29T18:03:14.267Z,11.00
2022-10-29T18:05:43.761Z,11.03
2022-10-29T18:08:12.826Z,11.30
2022-10-29T18:10:41.865Z,10.73
2022-10-29T18:13:10.947Z,10.80
2022-10-29T18:15:40.821Z,10.23
2022-10-29T18:18:11.265Z,10.80
2022-10-29T18:20:40.539Z,10.47
2022-10-29T18:23:09.616Z,11.07
2022-10-29T18:25:38.674Z,9.80
2022-10-29T18:28:07.776Z,10.93
2022-10-29T18:30:36.908Z,10.20
2022-10-29T18:33:05.992Z,11.07
2022-10-29T18:35:36.456Z,10.00
2022-10-29T18:38:06.061Z,10.30
2022-10-29T18:40:35.300Z,10.30
2022-10-29T18:43:04.419Z,10.90
2022-10-29T18:45:33.520Z,10.50
2022-10-29T18:48:02.591Z,10.63
2022-10-29T18:50:33.663Z,10.63
2022-10-29T18:53:04.094Z,10.60
2022-10-29T18:55:33.361Z,10.17
2022-10-29T18:58:02.422Z,15.43
2022-10-29T19:00:31.740Z,14.17
2022-10-29T19:03:00.918Z,12.30
2022-10-29T19:05:30.169Z,12.10
2022-10-29T19:07:59.618Z,11.73
2022-10-29T19:10:30.264Z,10.87
2022-10-29T19:12:59.440Z,10.80
2022-10-29T19:15:28.520Z,10.83
2022-10-29T19:17:57.863Z,10.90
2022-10-29T19:20:27.420Z,10.20
2022-10-29T19:22:57.765Z,11.07
2022-10-29T19:25:27.437Z,10.60
2022-10-29T19:27:58.581Z,11.10
2022-10-29T19:30:27.957Z,10.53
2022-10-29T19:32:57.559Z,10.10
2022-10-29T19:35:29.363Z,10.70
2022-10-29T19:37:58.779Z,10.10
2022-10-29T19:40:29.985Z,10.17
2022-10-29T19:43:00.593Z,10.50
2022-10-29T19:45:29.947Z,10.50
2022-10-29T19:48:02.176Z,10.40
2022-10-29T19:50:31.532Z,9.90
2022-10-29T19:53:00.955Z,10.30
2022-10-29T19:55:33.444Z,9.93
2022-10-29T19:58:03.890Z,12.90
2022-10-29T20:00:33.430Z,12.63
2022-10-29T20:03:03.280Z,12.57
2022-10-29T20:05:35.327Z,11.40
2022-10-29T20:08:04.473Z,10.50
2022-10-29T20:10:34.244Z,10.80
2022-10-29T20:13:05.544Z,10.63
2022-10-29T20:15:34.888Z,10.00
2022-10-29T20:18:04.028Z,10.40
2022-10-29T20:20:33.316Z,10.27
2022-10-29T20:23:02.866Z,10.27
2022-10-29T20:25:32.009Z,10.17
2022-10-29T20:28:01.869Z,10.40
2022-10-29T20:30:32.494Z,10.60
2022-10-29T20:33:01.688Z,10.27
2022-10-29T20:35:30.822Z,10.53
2022-10-29T20:38:00.165Z,10.73
2022-10-29T20:40:29.592Z,10.10
2022-10-29T20:42:58.719Z,10.90
2022-10-29T20:45:27.951Z,11.20
2022-10-29T20:48:03.144Z,12.03
2022-10-29T20:50:35.667Z,11.60
2022-10-29T20:55:45.303Z,11.90
2022-10-29T20:58:14.364Z,12.00
2022-10-29T21:00:43.879Z,11.97
2022-10-29T21:03:15.094Z,11.10
2022-10-29T21:05:44.597Z,11.90
2022-10-29T21:08:13.652Z,11.97
2022-10-29T21:10:42.728Z,11.53
2022-10-29T21:13:11.797Z,15.93
2022-10-29T21:15:40.918Z,12.80
2022-10-29T21:18:09.986Z,12.30
2022-10-29T21:20:40.486Z,12.07
2022-10-29T21:23:09.559Z,12.00
2022-10-29T21:25:38.684Z,11.10
2022-10-29T21:28:07.848Z,11.60
2022-10-29T21:30:37.568Z,11.10
2022-10-29T21:33:06.620Z,11.50
2022-10-29T21:35:35.724Z,10.40
2022-10-29T21:38:06.190Z,10.70
2022-10-29T21:40:35.384Z,10.10
2022-10-29T21:43:04.444Z,10.77
2022-10-29T21:45:33.553Z,10.50
2022-10-29T21:48:02.752Z,10.63
2022-10-29T21:50:31.868Z,10.23
2022-10-29T21:53:01.714Z,11.17
2022-10-29T21:55:33.037Z,10.40
2022-10-29T21:58:02.456Z,10.67
2022-10-29T22:00:32.284Z,10.20
2022-10-29T22:03:04.437Z,10.30
2022-10-29T22:05:33.936Z,10.17
2022-10-29T22:08:03.211Z,10.10
2022-10-29T22:10:33.680Z,10.23
2022-10-29T22:13:02.953Z,10.47
2022-10-29T22:15:32.014Z,10.40
2022-10-29T22:18:01.174Z,10.50
2022-10-29T22:20:30.253Z,10.73
2022-10-29T22:22:59.718Z,10.90
2022-10-29T22:25:29.232Z,10.33
2022-10-29T22:28:00.225Z,10.80
2022-10-29T22:30:29.489Z,10.60
2022-10-29T22:32:58.748Z,10.10
2022-10-29T22:35:27.876Z,10.57
2022-10-29T22:40:30.976Z,10.17
2022-10-29T22:43:01.649Z,10.27
2022-10-29T22:45:30.774Z,10.10
2022-10-29T22:48:00.001Z,10.00
2022-10-29T22:50:29.123Z,10.27
2022-10-29T22:52:58.453Z,10.40
2022-10-29T22:55:27.949Z,9.90
2022-10-29T22:57:57.604Z,10.10
2022-10-29T23:00:28.310Z,9.73
2022-10-29T23:02:57.600Z,10.00
2022-10-29T23:05:26.998Z,10.30
2022-10-29T23:07:56.371Z,10.07
2022-10-29T23:10:25.656Z,9.87
2022-10-29T23:12:54.730Z,9.53
2022-10-29T23:15:23.805Z,9.60
2022-10-29T23:17:55.936Z,9.90
2022-10-29T23:20:25.414Z,9.60
2022-10-29T23:22:54.671Z,10.17
2022-10-29T23:25:23.832Z,9.90
2022-10-29T23:27:56.092Z,10.30
2022-10-29T23:30:25.436Z,9.80
2022-10-29T23:32:56.260Z,10.13
2022-10-29T23:35:25.915Z,9.97
2022-10-29T23:37:55.344Z,9.47
2022-10-29T23:40:24.596Z,9.40
2022-10-29T23:42:53.618Z,9.97
2022-10-29T23:45:22.737Z,10.10
2022-10-29T23:47:51.818Z,9.63
2022-10-29T23:50:22.288Z,9.90
2022-10-29T23:52:51.348Z,10.07
2022-10-29T23:55:20.493Z,9.90
2022-10-29T23:57:49.572Z,10.00
